Terminal Aerodrome Forecast
Issued by NWS

Home | Current Version | Previous Version | Text Only | Print | Product List | Glossary On
Versions: 1 2 3 4 5 6 7 8 9 10 11 12 13 14 15
000
FTAK31 PAJN 281700
TAFAYA
TAF
PAYA 281720Z 2818/2918 07005KT P6SM SCT030 BKN050
     FM290300 09010KT P6SM -RA SCT025 OVC040
     FM290700 09010KT 6SM -RA BR SCT015 OVC025
      AMD LTD TO CLD VIS AND WIND 2901/2910=

USA.gov is the U.S. government's official web portal to all federal, state and local government web resources and services.